createdAt,value
2023-03-15T00:01:59.276Z,8.75
2023-03-15T00:04:58.373Z,7.53
2023-03-15T00:07:37.776Z,10.43
2023-03-15T00:10:41.895Z,9.30
2023-03-15T00:13:32.631Z,6.70
2023-03-15T00:16:21.132Z,6.90
2023-03-15T00:19:06.985Z,8.02
2023-03-15T00:21:44.060Z,14.35
2023-03-15T00:24:19.653Z,4.43
2023-03-15T00:27:00.098Z,3.83
2023-03-15T00:29:40.948Z,4.13
2023-03-15T00:32:38.494Z,9.20
2023-03-15T00:35:13.575Z,11.40
2023-03-15T00:37:55.350Z,10.13
2023-03-15T00:40:45.934Z,11.20
2023-03-15T00:43:29.398Z,12.38
2023-03-15T00:46:06.239Z,11.80
2023-03-15T00:48:42.737Z,7.30
2023-03-15T00:51:45.603Z,9.30
2023-03-15T00:55:23.797Z,11.65
2023-03-15T00:58:22.944Z,8.50
2023-03-15T01:01:11.963Z,10.30
2023-03-15T01:04:07.792Z,10.60
2023-03-15T01:07:13.896Z,5.60
2023-03-15T01:10:21.426Z,7.13
2023-03-15T01:13:01.737Z,9.88
2023-03-15T01:15:36.861Z,7.40
2023-03-15T01:18:16.331Z,8.32
2023-03-15T01:25:12.474Z,14.90
2023-03-15T01:27:44.991Z,9.35
2023-03-15T01:30:24.137Z,13.85
2023-03-15T01:32:52.994Z,6.13
2023-03-15T01:35:25.757Z,8.98
2023-03-15T01:38:06.677Z,9.77
2023-03-15T01:41:17.590Z,12.50
2023-03-15T01:43:56.000Z,13.23
2023-03-15T01:46:49.468Z,15.90
2023-03-15T01:49:43.073Z,5.13
2023-03-15T01:54:09.726Z,6.18
2023-03-15T01:55:56.806Z,11.88
2023-03-15T01:58:52.985Z,13.32
2023-03-15T02:01:29.602Z,15.73
2023-03-15T02:04:19.640Z,8.23
2023-03-15T02:07:02.238Z,3.33
2023-03-15T02:09:53.396Z,7.53
2023-03-15T02:13:06.889Z,5.50
2023-03-15T02:16:04.388Z,8.25
2023-03-15T02:19:43.256Z,14.00
2023-03-15T02:23:17.273Z,6.72
2023-03-15T02:25:59.293Z,6.10
2023-03-15T02:28:35.922Z,7.50
2023-03-15T02:31:12.401Z,7.82
2023-03-15T02:34:13.095Z,19.13
2023-03-15T02:40:51.749Z,10.63
2023-03-15T02:44:09.861Z,13.25
2023-03-15T02:46:47.123Z,15.73
2023-03-15T02:49:27.296Z,12.48
2023-03-15T02:51:57.172Z,5.22
2023-03-15T02:54:30.338Z,10.25
2023-03-15T02:57:21.795Z,14.15
2023-03-15T03:00:01.113Z,5.38
2023-03-15T03:03:07.435Z,8.95
2023-03-15T03:06:29.456Z,10.77
2023-03-15T03:13:43.839Z,9.13
2023-03-15T03:16:05.346Z,14.00
2023-03-15T03:19:00.669Z,15.50
2023-03-15T03:22:28.427Z,5.50
2023-03-15T03:28:59.759Z,11.82
2023-03-15T03:32:15.530Z,10.75
2023-03-15T03:39:50.503Z,14.18
2023-03-15T03:43:08.443Z,16.48
2023-03-15T03:50:01.248Z,6.93
2023-03-15T03:57:10.818Z,3.50
2023-03-15T04:00:44.549Z,2.55
2023-03-15T04:03:21.085Z,12.07
2023-03-15T04:22:41.263Z,12.13
2023-03-15T04:26:36.553Z,9.82
2023-03-15T04:31:36.638Z,8.48
2023-03-15T04:35:01.176Z,8.45
2023-03-15T04:42:44.995Z,12.20
2023-03-15T05:06:34.804Z,11.80
2023-03-15T05:10:15.667Z,15.68
2023-03-15T05:13:04.576Z,11.45
2023-03-15T05:16:05.746Z,12.75
2023-03-15T05:18:54.286Z,7.78
2023-03-15T05:21:48.711Z,7.22
2023-03-15T05:24:39.795Z,11.27
2023-03-15T05:27:34.621Z,9.80
2023-03-15T05:30:42.851Z,8.23
2023-03-15T05:33:29.700Z,12.13
2023-03-15T05:36:22.283Z,13.15
2023-03-15T05:39:00.251Z,15.55
2023-03-15T05:41:52.067Z,9.05
2023-03-15T05:44:40.649Z,15.70
2023-03-15T05:47:33.712Z,15.80
2023-03-15T05:50:34.533Z,12.55
2023-03-15T05:53:12.188Z,13.05
2023-03-15T05:55:58.890Z,13.27
2023-03-15T05:58:47.600Z,17.17
2023-03-15T06:01:41.320Z,11.73
2023-03-15T06:04:32.777Z,16.77
2023-03-15T06:07:02.288Z,13.68
2023-03-15T06:09:33.007Z,13.02
2023-03-15T06:12:01.619Z,11.05
2023-03-15T06:14:30.354Z,7.03
2023-03-15T06:17:02.760Z,9.05
2023-03-15T06:19:33.257Z,11.63
2023-03-15T06:22:02.301Z,10.50
2023-03-15T06:24:42.725Z,7.90
2023-03-15T06:27:11.411Z,16.60
2023-03-15T06:29:40.170Z,5.63
2023-03-15T06:32:09.455Z,4.32
2023-03-15T06:34:40.228Z,14.38
2023-03-15T06:37:08.638Z,7.20
2023-03-15T06:39:37.373Z,13.35
2023-03-15T06:42:08.346Z,8.80
2023-03-15T06:44:41.481Z,9.75
2023-03-15T06:47:11.549Z,10.25
2023-03-15T06:49:40.208Z,8.57
2023-03-15T06:52:09.361Z,8.55
2023-03-15T06:54:38.323Z,8.35
2023-03-15T06:57:06.939Z,9.07
2023-03-15T06:59:36.068Z,7.05
2023-03-15T07:02:05.087Z,11.75
2023-03-15T07:04:34.097Z,10.65
2023-03-15T07:07:02.588Z,8.48
2023-03-15T07:09:31.200Z,10.63
2023-03-15T07:11:59.387Z,11.25
2023-03-15T07:14:27.915Z,10.77
2023-03-15T07:16:56.237Z,7.95
2023-03-15T07:19:24.815Z,11.48
2023-03-15T07:21:53.099Z,9.55
2023-03-15T07:24:21.887Z,14.45
2023-03-15T07:26:54.798Z,11.57
2023-03-15T07:29:24.336Z,7.43
2023-03-15T07:31:54.534Z,13.02
2023-03-15T07:34:23.261Z,12.88
2023-03-15T07:36:51.458Z,5.35
2023-03-15T07:39:20.527Z,10.48
2023-03-15T07:41:49.018Z,8.60
2023-03-15T07:44:24.573Z,8.88
2023-03-15T07:46:52.867Z,7.97
2023-03-15T07:49:21.978Z,8.23
2023-03-15T07:51:50.236Z,7.57
2023-03-15T07:54:19.805Z,6.38
2023-03-15T07:56:48.109Z,13.32
2023-03-15T07:59:16.672Z,10.23
2023-03-15T08:01:45.083Z,13.85
2023-03-15T08:04:14.010Z,13.20
2023-03-15T08:06:42.233Z,15.73
2023-03-15T08:09:12.165Z,11.38
2023-03-15T08:11:41.657Z,11.73
2023-03-15T08:14:11.433Z,9.07
2023-03-15T08:16:39.935Z,16.60
2023-03-15T08:19:09.394Z,12.10
2023-03-15T08:21:37.628Z,9.43
2023-03-15T08:47:12.368Z,14.55
2023-03-15T08:49:41.115Z,9.80
2023-03-15T08:52:12.440Z,11.90
2023-03-15T08:54:41.168Z,11.63
2023-03-15T08:57:09.640Z,10.23
2023-03-15T08:59:38.754Z,20.55
2023-03-15T09:02:07.432Z,8.88
2023-03-15T09:04:36.162Z,14.65
2023-03-15T09:07:04.616Z,7.53
2023-03-15T09:09:33.848Z,10.40
2023-03-15T09:12:04.368Z,11.27
2023-03-15T09:14:33.007Z,17.17
2023-03-15T09:17:01.597Z,7.22
2023-03-15T09:22:16.443Z,10.10
2023-03-15T09:24:52.772Z,13.82
2023-03-15T09:27:21.226Z,10.52
2023-03-15T09:29:49.896Z,6.43
2023-03-15T09:32:18.197Z,17.55
2023-03-15T09:34:47.039Z,16.05
2023-03-15T09:37:17.728Z,7.18
2023-03-15T09:39:46.411Z,13.80
2023-03-15T09:42:22.963Z,18.35
2023-03-15T09:45:07.262Z,14.05
2023-03-15T09:48:26.571Z,15.07
2023-03-15T09:51:05.694Z,7.15
2023-03-15T09:53:39.375Z,23.27
2023-03-15T09:56:49.187Z,7.22
2023-03-15T09:59:23.204Z,6.47
2023-03-15T10:01:54.711Z,15.10
2023-03-15T10:04:35.104Z,10.63
2023-03-15T10:07:04.248Z,13.35
2023-03-15T10:09:35.016Z,7.07
2023-03-15T10:12:09.211Z,10.73
2023-03-15T10:15:43.809Z,14.77
2023-03-15T10:18:34.059Z,16.35
2023-03-15T10:21:16.371Z,10.85
2023-03-15T10:23:52.313Z,7.75
2023-03-15T10:26:28.084Z,6.15
2023-03-15T10:28:57.148Z,5.43
2023-03-15T10:31:44.165Z,9.65
2023-03-15T10:34:15.820Z,8.10
2023-03-15T10:36:55.846Z,8.23
2023-03-15T10:39:25.876Z,9.45
2023-03-15T10:41:54.443Z,11.30
2023-03-15T10:44:25.384Z,12.20
2023-03-15T10:47:23.056Z,9.10
2023-03-15T10:49:59.870Z,11.05
2023-03-15T10:52:38.949Z,8.90
2023-03-15T10:55:16.107Z,5.97
2023-03-15T10:58:00.010Z,9.98
2023-03-15T11:00:33.953Z,9.63
2023-03-15T11:03:29.575Z,12.15
2023-03-15T11:05:59.241Z,4.63
2023-03-15T11:08:40.124Z,9.80
2023-03-15T11:11:10.192Z,12.05
2023-03-15T11:13:40.645Z,12.57
2023-03-15T11:16:15.349Z,10.48
2023-03-15T11:19:12.184Z,8.82
2023-03-15T11:21:43.045Z,5.22
2023-03-15T11:24:23.162Z,11.05
2023-03-15T11:26:55.126Z,10.55
2023-03-15T11:29:27.457Z,10.75
2023-03-15T11:31:58.526Z,10.00
2023-03-15T11:34:38.783Z,5.90
2023-03-15T11:37:48.999Z,6.90
2023-03-15T11:40:22.935Z,11.18
2023-03-15T11:43:19.329Z,10.45
2023-03-15T11:46:00.860Z,10.27
2023-03-15T11:49:08.486Z,8.88
2023-03-15T11:51:37.383Z,8.75
2023-03-15T11:54:13.100Z,10.25
2023-03-15T11:56:44.430Z,12.43
2023-03-15T11:59:17.375Z,8.63
2023-03-15T12:01:52.187Z,7.90
2023-03-15T12:04:29.931Z,8.63
2023-03-15T12:07:03.481Z,7.97
2023-03-15T12:09:32.098Z,6.75
2023-03-15T12:12:02.631Z,9.40
2023-03-15T12:14:37.055Z,7.43
2023-03-15T12:17:24.166Z,7.13
2023-03-15T12:20:19.273Z,4.90
2023-03-15T12:22:52.425Z,3.10
2023-03-15T12:25:54.061Z,9.38
2023-03-15T12:28:28.814Z,9.60
2023-03-15T12:31:02.366Z,11.75
2023-03-15T12:33:32.924Z,11.93
2023-03-15T12:36:09.193Z,12.07
2023-03-15T12:38:43.174Z,8.15
2023-03-15T12:41:46.751Z,10.95
2023-03-15T12:44:27.753Z,10.00
2023-03-15T12:46:58.218Z,12.57
2023-03-15T12:49:42.981Z,12.82
2023-03-15T12:52:11.709Z,13.45
2023-03-15T12:55:01.855Z,11.93
2023-03-15T12:57:39.215Z,11.32
2023-03-15T13:00:15.231Z,10.20
2023-03-15T13:03:17.768Z,11.75
2023-03-15T13:05:54.483Z,7.70
2023-03-15T13:09:07.498Z,8.38
2023-03-15T13:11:44.387Z,7.15
2023-03-15T13:14:32.061Z,9.63
2023-03-15T13:17:32.143Z,9.60
2023-03-15T13:20:36.738Z,8.18
2023-03-15T13:23:26.333Z,9.30
2023-03-15T13:26:08.971Z,7.43
2023-03-15T13:31:31.628Z,4.95
2023-03-15T13:34:24.245Z,5.75
2023-03-15T13:39:29.264Z,6.20
2023-03-15T13:42:05.834Z,6.55
2023-03-15T13:44:36.770Z,5.32
2023-03-15T13:47:05.390Z,7.70
2023-03-15T13:49:34.778Z,7.90
2023-03-15T13:52:21.498Z,7.03
2023-03-15T13:54:54.116Z,7.72
2023-03-15T14:00:00.798Z,4.90
2023-03-15T14:02:55.244Z,4.45
2023-03-15T14:05:29.301Z,4.05
2023-03-15T14:08:04.421Z,6.40
2023-03-15T14:10:35.950Z,5.63
2023-03-15T14:13:22.328Z,4.97
2023-03-15T14:15:56.380Z,4.70
2023-03-15T14:18:26.835Z,6.70
2023-03-15T14:21:11.078Z,5.95
2023-03-15T14:23:43.603Z,4.97
2023-03-15T14:26:18.797Z,13.18
2023-03-15T14:29:01.972Z,7.95
2023-03-15T14:31:36.091Z,6.53
2023-03-15T14:34:33.670Z,7.95
2023-03-15T14:37:07.506Z,10.43
2023-03-15T14:39:35.855Z,8.23
2023-03-15T14:42:04.779Z,7.03
2023-03-15T14:44:33.256Z,7.13
2023-03-15T14:47:02.993Z,5.95
2023-03-15T14:49:31.502Z,6.68
2023-03-15T14:52:05.823Z,7.22
2023-03-15T14:54:34.592Z,6.80
2023-03-15T14:57:03.391Z,6.47
2023-03-15T14:59:31.782Z,4.43
2023-03-15T15:02:03.003Z,3.65
2023-03-15T15:04:34.385Z,3.85
2023-03-15T15:07:03.773Z,4.18
2023-03-15T15:09:32.035Z,8.68
2023-03-15T15:12:00.640Z,7.93
2023-03-15T15:14:29.099Z,15.35
2023-03-15T15:16:57.937Z,8.50
2023-03-15T15:19:26.338Z,9.73
2023-03-15T15:21:55.202Z,4.95
2023-03-15T15:24:27.065Z,7.97
2023-03-15T15:26:55.855Z,4.55
2023-03-15T15:29:24.853Z,5.90
2023-03-15T15:31:53.669Z,7.85
2023-03-15T15:34:22.104Z,6.75
2023-03-15T15:36:52.424Z,5.38
2023-03-15T15:39:29.794Z,6.38
2023-03-15T15:41:58.449Z,5.93
2023-03-15T15:44:26.947Z,5.50
2023-03-15T15:46:55.848Z,6.80
2023-03-15T15:49:24.319Z,7.13
2023-03-15T15:51:53.358Z,8.80
2023-03-15T15:54:26.764Z,6.35
2023-03-15T15:57:00.634Z,8.27
2023-03-15T15:59:30.816Z,10.18
2023-03-15T16:02:02.102Z,6.95
2023-03-15T16:04:32.743Z,5.03
2023-03-15T16:07:03.825Z,6.15
2023-03-15T16:09:37.659Z,8.68
2023-03-15T16:12:27.413Z,13.38
2023-03-15T16:14:56.007Z,9.60
2023-03-15T16:17:27.411Z,8.05
2023-03-15T16:19:55.848Z,11.05
2023-03-15T16:22:25.376Z,10.25
2023-03-15T16:24:57.273Z,9.95
2023-03-15T16:27:30.769Z,7.93
2023-03-15T16:29:59.447Z,7.40
2023-03-15T16:32:43.554Z,8.68
2023-03-15T16:35:15.940Z,8.63
2023-03-15T16:37:46.362Z,11.00
2023-03-15T16:40:42.715Z,11.35
2023-03-15T16:43:13.302Z,9.75
2023-03-15T16:45:41.898Z,15.30
2023-03-15T16:48:12.266Z,8.57
2023-03-15T16:50:42.072Z,8.63
2023-03-15T16:53:13.539Z,18.17
2023-03-15T16:55:41.994Z,36.40
2023-03-15T16:58:25.133Z,19.17
2023-03-15T17:00:54.069Z,20.92
2023-03-15T17:03:22.659Z,43.72
2023-03-15T17:05:51.491Z,45.17
2023-03-15T17:08:21.180Z,10.88
2023-03-15T17:10:49.996Z,5.07
2023-03-15T17:13:26.126Z,9.20
2023-03-15T17:15:54.977Z,12.20
2023-03-15T17:18:24.264Z,22.50
2023-03-15T17:20:53.104Z,12.95
2023-03-15T17:23:21.988Z,11.15
2023-03-15T17:25:51.295Z,11.30
2023-03-15T17:28:19.754Z,9.90
2023-03-15T17:30:51.546Z,7.82
2023-03-15T17:33:32.096Z,7.97
2023-03-15T17:36:01.658Z,11.02
2023-03-15T17:38:33.883Z,20.77
2023-03-15T17:41:02.670Z,11.82
2023-03-15T17:43:31.101Z,12.38
2023-03-15T17:45:59.767Z,29.85
2023-03-15T17:48:28.196Z,100.72
2023-03-15T17:50:57.218Z,73.85
2023-03-15T17:53:25.595Z,19.35
2023-03-15T17:55:54.459Z,12.13
2023-03-15T17:58:24.563Z,9.57
2023-03-15T18:00:54.954Z,13.93
2023-03-15T18:03:24.221Z,12.23
2023-03-15T18:05:53.121Z,13.25
2023-03-15T18:08:21.609Z,15.60
2023-03-15T18:10:51.626Z,52.95
2023-03-15T18:13:21.639Z,52.63
2023-03-15T18:16:15.401Z,88.53
2023-03-15T18:18:45.181Z,49.25
2023-03-15T18:21:35.803Z,39.97
2023-03-15T18:24:08.513Z,46.17
2023-03-15T18:26:53.786Z,61.00
2023-03-15T18:29:23.545Z,52.80
2023-03-15T18:31:52.471Z,48.17
2023-03-15T18:34:24.604Z,36.80
2023-03-15T18:37:05.036Z,29.67
2023-03-15T18:39:55.068Z,28.17
2023-03-15T18:42:27.359Z,28.90
2023-03-15T18:45:00.701Z,28.40
2023-03-15T18:47:36.012Z,30.55
2023-03-15T18:50:10.559Z,30.98
2023-03-15T18:52:47.418Z,31.63
2023-03-15T18:55:21.967Z,30.25
2023-03-15T19:01:53.911Z,18.42
2023-03-15T19:04:40.431Z,12.88
2023-03-15T19:07:09.677Z,10.75
2023-03-15T19:09:38.218Z,12.07
2023-03-15T19:12:20.492Z,20.25
2023-03-15T19:15:12.596Z,20.45
2023-03-15T19:18:44.091Z,19.23
2023-03-15T19:21:13.315Z,22.75
2023-03-15T19:23:42.075Z,26.55
2023-03-15T19:26:15.245Z,28.40
2023-03-15T19:28:44.229Z,31.08
2023-03-15T19:31:37.476Z,45.13
2023-03-15T19:34:06.418Z,42.90
2023-03-15T19:36:37.545Z,45.33
2023-03-15T19:39:10.640Z,56.35
2023-03-15T19:42:05.480Z,76.72
2023-03-15T19:48:04.496Z,59.58
2023-03-15T19:50:34.448Z,91.13
2023-03-15T19:53:04.440Z,56.55
2023-03-15T19:55:35.928Z,64.70
2023-03-15T19:58:04.814Z,78.80
2023-03-15T20:00:33.588Z,52.03
2023-03-15T20:03:04.923Z,56.83
2023-03-15T20:08:05.484Z,52.28
2023-03-15T21:01:24.159Z,47.75
2023-03-15T21:03:56.617Z,40.95
2023-03-15T21:06:26.128Z,40.47
2023-03-15T21:08:58.502Z,36.05
2023-03-15T21:11:33.481Z,32.33
2023-03-15T21:14:02.278Z,40.65
2023-03-15T21:16:46.548Z,42.35
2023-03-15T21:19:29.597Z,48.53
2023-03-15T21:22:01.068Z,44.78
2023-03-15T21:24:36.605Z,43.00
2023-03-15T21:27:22.554Z,40.67
2023-03-15T21:29:59.276Z,37.72
2023-03-15T21:32:28.546Z,32.85
2023-03-15T21:34:57.110Z,30.00
2023-03-15T21:40:05.739Z,32.28
2023-03-15T21:42:35.998Z,24.25
2023-03-15T21:45:08.876Z,24.38
2023-03-15T21:47:38.102Z,30.20
2023-03-15T21:50:07.552Z,30.40
2023-03-15T21:52:37.760Z,29.55
2023-03-15T21:55:07.961Z,34.85
2023-03-15T21:57:39.105Z,49.42
2023-03-15T22:00:19.124Z,54.20
2023-03-15T22:02:55.887Z,56.33
2023-03-15T22:05:36.902Z,52.22
2023-03-15T22:08:23.238Z,44.25
2023-03-15T22:11:13.780Z,34.90
2023-03-15T22:13:48.314Z,34.13
2023-03-15T22:52:57.593Z,31.95
2023-03-15T23:03:34.062Z,28.38
